<?xml version="1.0" encoding="UTF-8" standalone="no" ?>
<gpx xmlns="http://www.topografix.com/GPX/1/1" creator="MapSource 6.15.5" version="1.1" xmlns:xsi="http://www.w3.org/2001/XMLSchema-instance" xsi:schemaLocation="http://www.topografix.com/GPX/1/1 http://www.topografix.com/GPX/1/1/gpx.xsd">

  <metadata>
    <link href="http://www.garmin.com">
      <text>Garmin International</text>
    </link>
    <time>2015-10-04T17:46:15Z</time>
    <bounds maxlat="51.9062070" maxlon="7.2203280" minlat="51.8830298" minlon="7.1898974"/>
  </metadata>

  <trk>
    <name>ACTIVE LOG 005</name>
    <extensions>
      <gpxx:TrackExtension xmlns:gpxx="http://www.garmin.com/xmlschemas/GpxExtensions/v3">
        <gpxx:DisplayColor>Blue</gpxx:DisplayColor>
      </gpxx:TrackExtension>
    </extensions>
    <trkseg>
      <trkpt lat="51.8959404" lon="7.1899151">
        <ele>-14.2824707</ele>
        <time>2015-03-11T15:16:34Z</time>
      </trkpt>
      <trkpt lat="51.8959314" lon="7.1898974">
        <ele>-10.4372559</ele>
        <time>2015-03-11T15:16:43Z</time>
      </trkpt>
      <trkpt lat="51.8959305" lon="7.1899029">
        <ele>-5.6304932</ele>
        <time>2015-03-11T15:16:45Z</time>
      </trkpt>
      <trkpt lat="51.8959314" lon="7.1899045">
        <ele>-0.8240967</ele>
        <time>2015-03-11T15:16:47Z</time>
      </trkpt>
      <trkpt lat="51.8959357" lon="7.1899065">
        <ele>3.9826660</ele>
        <time>2015-03-11T15:16:49Z</time>
      </trkpt>
      <trkpt lat="51.8959395" lon="7.1899099">
        <ele>5.9052734</ele>
        <time>2015-03-11T15:16:50Z</time>
      </trkpt>
      <trkpt lat="51.8959691" lon="7.1899486">
        <ele>12.6343994</ele>
        <time>2015-03-11T15:16:53Z</time>
      </trkpt>
      <trkpt lat="51.8959951" lon="7.1899851">
        <ele>16.4797363</ele>
        <time>2015-03-11T15:16:55Z</time>
      </trkpt>
      <trkpt lat="51.8960227" lon="7.1900253">
        <ele>19.3637695</ele>
        <time>2015-03-11T15:16:57Z</time>
      </trkpt>
      <trkpt lat="51.8960487" lon="7.1900631">
        <ele>23.2089844</ele>
        <time>2015-03-11T15:16:59Z</time>
      </trkpt>
      <trkpt lat="51.8960901" lon="7.1901093">
        <ele>27.5349121</ele>
        <time>2015-03-11T15:17:02Z</time>
      </trkpt>
      <trkpt lat="51.8961225" lon="7.1901662">
        <ele>30.8995361</ele>
        <time>2015-03-11T15:17:04Z</time>
      </trkpt>
      <trkpt lat="51.8961760" lon="7.1902470">
        <ele>33.7834473</ele>
        <time>2015-03-11T15:17:07Z</time>
      </trkpt>
      <trkpt lat="51.8962621" lon="7.1903007">
        <ele>37.6286621</ele>
        <time>2015-03-11T15:17:10Z</time>
      </trkpt>
      <trkpt lat="51.8962875" lon="7.1903629">
        <ele>40.5128174</ele>
        <time>2015-03-11T15:17:13Z</time>
      </trkpt>
      <trkpt lat="51.8963447" lon="7.1904613">
        <ele>43.8773193</ele>
        <time>2015-03-11T15:17:16Z</time>
      </trkpt>
      <trkpt lat="51.8964470" lon="7.1905703">
        <ele>47.7225342</ele>
        <time>2015-03-11T15:17:20Z</time>
      </trkpt>
      <trkpt lat="51.8964968" lon="7.1906254">
        <ele>49.1645508</ele>
        <time>2015-03-11T15:17:22Z</time>
      </trkpt>
      <trkpt lat="51.8965407" lon="7.1906862">
        <ele>51.0871582</ele>
        <time>2015-03-11T15:17:24Z</time>
      </trkpt>
      <trkpt lat="51.8965213" lon="7.1909232">
        <ele>54.9323730</ele>
        <time>2015-03-11T15:17:29Z</time>
      </trkpt>
      <trkpt lat="51.8964917" lon="7.1909605">
        <ele>54.9323730</ele>
        <time>2015-03-11T15:17:30Z</time>
      </trkpt>
      <trkpt lat="51.8963971" lon="7.1910977">
        <ele>58.2971191</ele>
        <time>2015-03-11T15:17:34Z</time>
      </trkpt>
      <trkpt lat="51.8963516" lon="7.1912015">
        <ele>60.2197266</ele>
        <time>2015-03-11T15:17:37Z</time>
      </trkpt>
      <trkpt lat="51.8963341" lon="7.1912326">
        <ele>60.2197266</ele>
        <time>2015-03-11T15:17:38Z</time>
      </trkpt>
      <trkpt lat="51.8962610" lon="7.1912851">
        <ele>62.1423340</ele>
        <time>2015-03-11T15:17:41Z</time>
      </trkpt>
      <trkpt lat="51.8960399" lon="7.1914558">
        <ele>65.0263672</ele>
        <time>2015-03-11T15:17:49Z</time>
      </trkpt>
      <trkpt lat="51.8957932" lon="7.1919488">
        <ele>68.3908691</ele>
        <time>2015-03-11T15:18:01Z</time>
      </trkpt>
      <trkpt lat="51.8954801" lon="7.1922890">
        <ele>69.8328857</ele>
        <time>2015-03-11T15:18:16Z</time>
      </trkpt>
      <trkpt lat="51.8952373" lon="7.1926233">
        <ele>73.1976318</ele>
        <time>2015-03-11T15:18:27Z</time>
      </trkpt>
      <trkpt lat="51.8949259" lon="7.1929724">
        <ele>73.6782227</ele>
        <time>2015-03-11T15:18:41Z</time>
      </trkpt>
      <trkpt lat="51.8942830" lon="7.1937023">
        <ele>73.6782227</ele>
        <time>2015-03-11T15:19:01Z</time>
      </trkpt>
      <trkpt lat="51.8934810" lon="7.1944022">
        <ele>72.2362061</ele>
        <time>2015-03-11T15:19:24Z</time>
      </trkpt>
      <trkpt lat="51.8929810" lon="7.1948383">
        <ele>73.6782227</ele>
        <time>2015-03-11T15:19:40Z</time>
      </trkpt>
      <trkpt lat="51.8922760" lon="7.1954367">
        <ele>73.1976318</ele>
        <time>2015-03-11T15:19:59Z</time>
      </trkpt>
      <trkpt lat="51.8913510" lon="7.1968131">
        <ele>73.1976318</ele>
        <time>2015-03-11T15:20:29Z</time>
      </trkpt>
      <trkpt lat="51.8903525" lon="7.1983121">
        <ele>73.1976318</ele>
        <time>2015-03-11T15:21:00Z</time>
      </trkpt>
      <trkpt lat="51.8895172" lon="7.1995681">
        <ele>72.2362061</ele>
        <time>2015-03-11T15:21:27Z</time>
      </trkpt>
      <trkpt lat="51.8893544" lon="7.1998065">
        <ele>72.7169189</ele>
        <time>2015-03-11T15:21:32Z</time>
      </trkpt>
      <trkpt lat="51.8887296" lon="7.2009787">
        <ele>72.7169189</ele>
        <time>2015-03-11T15:21:53Z</time>
      </trkpt>
      <trkpt lat="51.8881536" lon="7.2018325">
        <ele>72.2362061</ele>
        <time>2015-03-11T15:22:12Z</time>
      </trkpt>
      <trkpt lat="51.8871150" lon="7.2028809">
        <ele>72.7169189</ele>
        <time>2015-03-11T15:22:41Z</time>
      </trkpt>
      <trkpt lat="51.8861246" lon="7.2041315">
        <ele>71.7554932</ele>
        <time>2015-03-11T15:23:11Z</time>
      </trkpt>
      <trkpt lat="51.8856656" lon="7.2051209">
        <ele>72.2362061</ele>
        <time>2015-03-11T15:23:30Z</time>
      </trkpt>
      <trkpt lat="51.8854385" lon="7.2055558">
        <ele>72.2362061</ele>
        <time>2015-03-11T15:23:39Z</time>
      </trkpt>
      <trkpt lat="51.8848436" lon="7.2063584">
        <ele>72.2362061</ele>
        <time>2015-03-11T15:23:58Z</time>
      </trkpt>
      <trkpt lat="51.8838035" lon="7.2076876">
        <ele>71.2749023</ele>
        <time>2015-03-11T15:24:29Z</time>
      </trkpt>
      <trkpt lat="51.8830298" lon="7.2087338">
        <ele>70.7941895</ele>
        <time>2015-03-11T15:24:54Z</time>
      </trkpt>
      <trkpt lat="51.8831838" lon="7.2091441">
        <ele>70.7941895</ele>
        <time>2015-03-11T15:25:01Z</time>
      </trkpt>
      <trkpt lat="51.8838216" lon="7.2100963">
        <ele>71.7554932</ele>
        <time>2015-03-11T15:25:23Z</time>
      </trkpt>
      <trkpt lat="51.8842323" lon="7.2113145">
        <ele>72.7169189</ele>
        <time>2015-03-11T15:25:44Z</time>
      </trkpt>
      <trkpt lat="51.8847064" lon="7.2121907">
        <ele>74.1588135</ele>
        <time>2015-03-11T15:26:03Z</time>
      </trkpt>
      <trkpt lat="51.8848847" lon="7.2124519">
        <ele>72.7169189</ele>
        <time>2015-03-11T15:26:09Z</time>
      </trkpt>
      <trkpt lat="51.8854092" lon="7.2133732">
        <ele>73.1976318</ele>
        <time>2015-03-11T15:26:28Z</time>
      </trkpt>
      <trkpt lat="51.8859918" lon="7.2144755">
        <ele>73.1976318</ele>
        <time>2015-03-11T15:26:52Z</time>
      </trkpt>
      <trkpt lat="51.8865302" lon="7.2157066">
        <ele>74.6395264</ele>
        <time>2015-03-11T15:27:16Z</time>
      </trkpt>
      <trkpt lat="51.8867356" lon="7.2161812">
        <ele>74.1588135</ele>
        <time>2015-03-11T15:27:25Z</time>
      </trkpt>
      <trkpt lat="51.8868029" lon="7.2163681">
        <ele>75.6008301</ele>
        <time>2015-03-11T15:27:28Z</time>
      </trkpt>
      <trkpt lat="51.8868138" lon="7.2164360">
        <ele>74.6395264</ele>
        <time>2015-03-11T15:27:29Z</time>
      </trkpt>
      <trkpt lat="51.8869638" lon="7.2178811">
        <ele>75.1202393</ele>
        <time>2015-03-11T15:27:51Z</time>
      </trkpt>
      <trkpt lat="51.8874237" lon="7.2184329">
        <ele>74.6395264</ele>
        <time>2015-03-11T15:28:05Z</time>
      </trkpt>
      <trkpt lat="51.8881254" lon="7.2194004">
        <ele>74.1588135</ele>
        <time>2015-03-11T15:28:28Z</time>
      </trkpt>
      <trkpt lat="51.8887562" lon="7.2203280">
        <ele>75.6008301</ele>
        <time>2015-03-11T15:28:50Z</time>
      </trkpt>
      <trkpt lat="51.8888712" lon="7.2200872">
        <ele>75.6008301</ele>
        <time>2015-03-11T15:28:54Z</time>
      </trkpt>
      <trkpt lat="51.8893450" lon="7.2187514">
        <ele>76.5621338</ele>
        <time>2015-03-11T15:29:18Z</time>
      </trkpt>
      <trkpt lat="51.8898598" lon="7.2173134">
        <ele>78.0040283</ele>
        <time>2015-03-11T15:29:44Z</time>
      </trkpt>
      <trkpt lat="51.8904001" lon="7.2163879">
        <ele>78.4847412</ele>
        <time>2015-03-11T15:30:03Z</time>
      </trkpt>
      <trkpt lat="51.8910801" lon="7.2153660">
        <ele>78.4847412</ele>
        <time>2015-03-11T15:30:26Z</time>
      </trkpt>
      <trkpt lat="51.8917300" lon="7.2143947">
        <ele>78.9654541</ele>
        <time>2015-03-11T15:30:46Z</time>
      </trkpt>
      <trkpt lat="51.8921103" lon="7.2131752">
        <ele>78.9654541</ele>
        <time>2015-03-11T15:31:06Z</time>
      </trkpt>
      <trkpt lat="51.8924397" lon="7.2119940">
        <ele>79.9266357</ele>
        <time>2015-03-11T15:31:25Z</time>
      </trkpt>
      <trkpt lat="51.8925378" lon="7.2117814">
        <ele>79.4460449</ele>
        <time>2015-03-11T15:31:29Z</time>
      </trkpt>
      <trkpt lat="51.8927106" lon="7.2115607">
        <ele>79.9266357</ele>
        <time>2015-03-11T15:31:35Z</time>
      </trkpt>
      <trkpt lat="51.8926839" lon="7.2103138">
        <ele>80.4074707</ele>
        <time>2015-03-11T15:31:53Z</time>
      </trkpt>
      <trkpt lat="51.8927877" lon="7.2081760">
        <ele>79.4460449</ele>
        <time>2015-03-11T15:32:23Z</time>
      </trkpt>
      <trkpt lat="51.8926644" lon="7.2075151">
        <ele>79.9266357</ele>
        <time>2015-03-11T15:32:31Z</time>
      </trkpt>
      <trkpt lat="51.8928587" lon="7.2070961">
        <ele>79.9266357</ele>
        <time>2015-03-11T15:32:38Z</time>
      </trkpt>
      <trkpt lat="51.8931628" lon="7.2067777">
        <ele>80.4074707</ele>
        <time>2015-03-11T15:32:47Z</time>
      </trkpt>
      <trkpt lat="51.8936869" lon="7.2073281">
        <ele>80.8881836</ele>
        <time>2015-03-11T15:33:02Z</time>
      </trkpt>
      <trkpt lat="51.8941440" lon="7.2078143">
        <ele>80.8881836</ele>
        <time>2015-03-11T15:33:16Z</time>
      </trkpt>
      <trkpt lat="51.8943043" lon="7.2079574">
        <ele>79.9266357</ele>
        <time>2015-03-11T15:33:20Z</time>
      </trkpt>
      <trkpt lat="51.8946491" lon="7.2077643">
        <ele>80.4074707</ele>
        <time>2015-03-11T15:33:28Z</time>
      </trkpt>
      <trkpt lat="51.8952554" lon="7.2067424">
        <ele>80.4074707</ele>
        <time>2015-03-11T15:33:49Z</time>
      </trkpt>
      <trkpt lat="51.8955619" lon="7.2062891">
        <ele>80.4074707</ele>
        <time>2015-03-11T15:33:58Z</time>
      </trkpt>
      <trkpt lat="51.8959823" lon="7.2060644">
        <ele>79.9266357</ele>
        <time>2015-03-11T15:34:08Z</time>
      </trkpt>
      <trkpt lat="51.8961170" lon="7.2058877">
        <ele>79.9266357</ele>
        <time>2015-03-11T15:34:12Z</time>
      </trkpt>
      <trkpt lat="51.8964583" lon="7.2052616">
        <ele>79.4460449</ele>
        <time>2015-03-11T15:34:24Z</time>
      </trkpt>
      <trkpt lat="51.8968266" lon="7.2042513">
        <ele>80.8881836</ele>
        <time>2015-03-11T15:34:41Z</time>
      </trkpt>
      <trkpt lat="51.8974156" lon="7.2030487">
        <ele>80.4074707</ele>
        <time>2015-03-11T15:35:02Z</time>
      </trkpt>
      <trkpt lat="51.8981106" lon="7.2016610">
        <ele>81.3687744</ele>
        <time>2015-03-11T15:35:27Z</time>
      </trkpt>
      <trkpt lat="51.8983182" lon="7.2012808">
        <ele>81.8493652</ele>
        <time>2015-03-11T15:35:36Z</time>
      </trkpt>
      <trkpt lat="51.8985050" lon="7.2015078">
        <ele>79.9266357</ele>
        <time>2015-03-11T15:35:41Z</time>
      </trkpt>
      <trkpt lat="51.8987241" lon="7.2018253">
        <ele>78.0040283</ele>
        <time>2015-03-11T15:35:47Z</time>
      </trkpt>
      <trkpt lat="51.8996224" lon="7.2030136">
        <ele>76.5621338</ele>
        <time>2015-03-11T15:36:11Z</time>
      </trkpt>
      <trkpt lat="51.8997313" lon="7.2031337">
        <ele>77.0428467</ele>
        <time>2015-03-11T15:36:14Z</time>
      </trkpt>
      <trkpt lat="51.9003785" lon="7.2040252">
        <ele>78.0040283</ele>
        <time>2015-03-11T15:36:34Z</time>
      </trkpt>
      <trkpt lat="51.9010408" lon="7.2045023">
        <ele>78.9654541</ele>
        <time>2015-03-11T15:36:52Z</time>
      </trkpt>
      <trkpt lat="51.9020834" lon="7.2049280">
        <ele>81.3687744</ele>
        <time>2015-03-11T15:37:19Z</time>
      </trkpt>
      <trkpt lat="51.9027792" lon="7.2052650">
        <ele>84.2526855</ele>
        <time>2015-03-11T15:37:39Z</time>
      </trkpt>
      <trkpt lat="51.9035716" lon="7.2056466">
        <ele>87.6171875</ele>
        <time>2015-03-11T15:38:05Z</time>
      </trkpt>
      <trkpt lat="51.9041761" lon="7.2059021">
        <ele>90.5013428</ele>
        <time>2015-03-11T15:38:25Z</time>
      </trkpt>
      <trkpt lat="51.9043881" lon="7.2054549">
        <ele>90.9819336</ele>
        <time>2015-03-11T15:38:35Z</time>
      </trkpt>
      <trkpt lat="51.9048122" lon="7.2044005">
        <ele>91.9432373</ele>
        <time>2015-03-11T15:38:58Z</time>
      </trkpt>
      <trkpt lat="51.9052716" lon="7.2032069">
        <ele>93.3851318</ele>
        <time>2015-03-11T15:39:22Z</time>
      </trkpt>
      <trkpt lat="51.9057175" lon="7.2021024">
        <ele>92.4239502</ele>
        <time>2015-03-11T15:39:42Z</time>
      </trkpt>
      <trkpt lat="51.9062070" lon="7.2008100">
        <ele>93.3851318</ele>
        <time>2015-03-11T15:40:07Z</time>
      </trkpt>
      <trkpt lat="51.9061988" lon="7.2007559">
        <ele>92.9045410</ele>
        <time>2015-03-11T15:40:08Z</time>
      </trkpt>
      <trkpt lat="51.9060307" lon="7.2005368">
        <ele>91.4625244</ele>
        <time>2015-03-11T15:40:12Z</time>
      </trkpt>
      <trkpt lat="51.9056362" lon="7.2000857">
        <ele>88.0980225</ele>
        <time>2015-03-11T15:40:20Z</time>
      </trkpt>
      <trkpt lat="51.9053233" lon="7.1997623">
        <ele>85.6945801</ele>
        <time>2015-03-11T15:40:25Z</time>
      </trkpt>
      <trkpt lat="51.9048481" lon="7.1992254">
        <ele>82.3300781</ele>
        <time>2015-03-11T15:40:32Z</time>
      </trkpt>
      <trkpt lat="51.9047790" lon="7.1991459">
        <ele>81.8493652</ele>
        <time>2015-03-11T15:40:33Z</time>
      </trkpt>
      <trkpt lat="51.9034076" lon="7.1975816">
        <ele>80.4074707</ele>
        <time>2015-03-11T15:40:55Z</time>
      </trkpt>
      <trkpt lat="51.9025219" lon="7.1965655">
        <ele>82.8107910</ele>
        <time>2015-03-11T15:41:14Z</time>
      </trkpt>
      <trkpt lat="51.9021673" lon="7.1961629">
        <ele>79.9266357</ele>
        <time>2015-03-11T15:41:22Z</time>
      </trkpt>
      <trkpt lat="51.9018174" lon="7.1957742">
        <ele>77.0428467</ele>
        <time>2015-03-11T15:41:28Z</time>
      </trkpt>
      <trkpt lat="51.9012251" lon="7.1951056">
        <ele>73.1976318</ele>
        <time>2015-03-11T15:41:37Z</time>
      </trkpt>
      <trkpt lat="51.9003508" lon="7.1941255">
        <ele>71.7554932</ele>
        <time>2015-03-11T15:41:52Z</time>
      </trkpt>
      <trkpt lat="51.9002608" lon="7.1940269">
        <ele>71.2749023</ele>
        <time>2015-03-11T15:41:54Z</time>
      </trkpt>
      <trkpt lat="51.9001617" lon="7.1940749">
        <ele>71.2749023</ele>
        <time>2015-03-11T15:42:49Z</time>
      </trkpt>
      <trkpt lat="51.9000239" lon="7.1945389">
        <ele>71.7554932</ele>
        <time>2015-03-11T15:43:03Z</time>
      </trkpt>
      <trkpt lat="51.8997836" lon="7.1951844">
        <ele>73.1976318</ele>
        <time>2015-03-11T15:43:18Z</time>
      </trkpt>
      <trkpt lat="51.8994328" lon="7.1956679">
        <ele>74.6395264</ele>
        <time>2015-03-11T15:43:32Z</time>
      </trkpt>
      <trkpt lat="51.8993877" lon="7.1957215">
        <ele>74.1588135</ele>
        <time>2015-03-11T15:43:34Z</time>
      </trkpt>
      <trkpt lat="51.8993167" lon="7.1955229">
        <ele>75.1202393</ele>
        <time>2015-03-11T15:43:41Z</time>
      </trkpt>
      <trkpt lat="51.8989131" lon="7.1947995">
        <ele>75.1202393</ele>
        <time>2015-03-11T15:44:00Z</time>
      </trkpt>
      <trkpt lat="51.8985195" lon="7.1941851">
        <ele>74.6395264</ele>
        <time>2015-03-11T15:44:17Z</time>
      </trkpt>
      <trkpt lat="51.8983240" lon="7.1939308">
        <ele>74.6395264</ele>
        <time>2015-03-11T15:44:27Z</time>
      </trkpt>
      <trkpt lat="51.8978815" lon="7.1933784">
        <ele>73.1976318</ele>
        <time>2015-03-11T15:44:45Z</time>
      </trkpt>
      <trkpt lat="51.8975748" lon="7.1929818">
        <ele>73.1976318</ele>
        <time>2015-03-11T15:45:00Z</time>
      </trkpt>
      <trkpt lat="51.8972783" lon="7.1924896">
        <ele>71.7554932</ele>
        <time>2015-03-11T15:45:14Z</time>
      </trkpt>
      <trkpt lat="51.8970033" lon="7.1920133">
        <ele>71.7554932</ele>
        <time>2015-03-11T15:45:25Z</time>
      </trkpt>
      <trkpt lat="51.8970214" lon="7.1918225">
        <ele>70.7941895</ele>
        <time>2015-03-11T15:45:29Z</time>
      </trkpt>
      <trkpt lat="51.8970989" lon="7.1913164">
        <ele>69.8328857</ele>
        <time>2015-03-11T15:45:37Z</time>
      </trkpt>
      <trkpt lat="51.8966687" lon="7.1906875">
        <ele>70.3134766</ele>
        <time>2015-03-11T15:45:53Z</time>
      </trkpt>
      <trkpt lat="51.8962719" lon="7.1903021">
        <ele>70.7941895</ele>
        <time>2015-03-11T15:46:06Z</time>
      </trkpt>
      <trkpt lat="51.8960341" lon="7.1899701">
        <ele>69.8328857</ele>
        <time>2015-03-11T15:46:19Z</time>
      </trkpt>
      <trkpt lat="51.8960304" lon="7.1899628">
        <ele>70.7941895</ele>
        <time>2015-03-11T15:46:20Z</time>
      </trkpt>
      <trkpt lat="51.8960208" lon="7.1900286">
        <ele>70.7941895</ele>
        <time>2015-03-11T15:46:31Z</time>
      </trkpt>
    </trkseg>
  </trk>

</gpx>
